Weather observations for the past three days for
Belen Regional Airport
Imperial (Metric)
Date Time (mdt) Wind (mph) Vis. (mi.) Weather Sky Cond. Temperature (ºF) Relative Humidity Wind Chill (°F) Heat Index (°F) Pressure Precipitation (in)
Air Dwpt 6 hour altimeter (in) sea level (mb) 1 hr 3 hr 6 hr
Max. Min.
05 15:55 W 3 10.00 Fair CLR 92.5 42.1 17% 88 30.09 0.0
05 15:35 N 8 10.00 Fair CLR 92.3 42.1 17% 88 30.11 0.0
05 15:15 NW 9 10.00 Fair CLR 92.5 42.4 18% 88 30.12 0.0
05 14:55 NE 6 10.00 Fair CLR 92.1 43 18% 88 30.12 0.0
05 14:35 NE 5 10.00 Fair CLR 88.7 43.7 21% 85 30.13 0.0
05 14:15 N 7 10.00 Fair CLR 90 43.3 20% 86 30.14 0.0
05 13:55 N 6 10.00 Fair CLR 89.6 43.9 20% 86 30.15 0.0
05 11:55 NE 3 10.00 Fair CLR 84.7 49.3 84.9 63.7 29% 83 30.21 0.0
05 11:35 N 5 10.00 Fair CLR 82.2 49.5 32% 81 30.21 0.0
05 11:15 NE 6 10.00 Fair CLR 81.7 50.5 34% 81 30.21 0.0
05 10:55 E 5 10.00 Fair CLR 81.7 50.4 34% 81 30.21 0.0
05 10:35 NE 5 10.00 Fair CLR 80.8 50.4 35% 80 30.22 0.0
05 10:15 E 7 10.00 Fair CLR 80.4 50.4 35% 80 30.22 0.0
05 09:55 NE 5 10.00 Fair CLR 80.1 50.9 36% 80 30.22 0.0
05 09:35 N 6 10.00 Fair CLR 78.3 52.2 40% 79 30.21 0.0
05 09:15 N 9 10.00 Fair CLR 77 51.3 41% 78 30.21 0.0
05 08:55 N 8 10.00 Fair CLR 75.2 51.1 43% 78 30.21 0.0
05 08:35 N 7 10.00 Fair CLR 70.7 53.4 54% 30.21 0.0
05 08:15 NW 5 10.00 Partly Cloudy SCT120 66.9 53.6 62% 30.22 0.0
05 07:55 NW 3 10.00 Partly Cloudy SCT120 66.2 53.6 64% 30.21 0.0
05 07:35 NW 5 10.00 Fair CLR 65.1 53.2 66% 30.2 0.0
05 07:15 NW 6 10.00 Fair CLR 63.7 52.9 68% 30.19 0.0
05 06:55 NW 5 10.00 Fair CLR 64.4 52.3 65% 30.18 0.0
05 05:35 S 3 10.00 Fair CLR 65.1 52.7 64% 30.17 0.0
05 05:15 W 5 10.00 Fair CLR 65.7 52.3 62% 30.16 0.0
05 04:55 N 3 10.00 Fair CLR 66 52.7 62% 30.15 0.0
05 04:35 N 7 10.00 Fair CLR 64.8 52.5 65% 30.15 0.0
05 04:15 N 5 10.00 Fair CLR 66.9 53.6 62% 30.15 0.0
05 03:55 N 3 10.00 Fair CLR 65.3 54.1 67% 30.15 0.0
05 03:35 N 5 10.00 Fair CLR 66.7 54.7 65% 30.15 0.0
05 03:15 SW 3 10.00 Fair CLR 69.4 54.5 59% 30.15 0.0
05 02:55 W 5 10.00 Fair CLR 70 54.7 58% 30.15 0.0
05 02:35 NW 5 10.00 Fair CLR 70.3 54.9 58% 30.15 0.0
05 02:15 W 6 10.00 Fair CLR 71.1 54.9 57% 30.15 0.0
05 01:55 W 3 10.00 Fair CLR 72.1 55.4 56% 30.15 0.0
05 01:35 Calm 10.00 Fair CLR 71.8 55.6 57% 30.16 0.0
05 01:15 Calm 10.00 Fair CLR 71.1 55.6 58% 30.15 0.0
05 00:55 W 3 10.00 Fair CLR 71.4 55.6 58% 30.15 0.0
05 00:35 Calm 10.00 Fair CLR 72.5 55.4 55% 30.15 0.0
05 00:15 S 3 10.00 Fair CLR 73 55 53% 30.15 0.0
04 23:55 SW 7 10.00 Fair CLR 72.5 54.7 82.4 72 54% 30.15 0.0
04 23:35 W 5 10.00 Fair CLR 72.5 55 54% 30.15 0.0
04 23:15 Calm 10.00 Fair CLR 72 55.8 57% 30.15 0.0
04 22:55 Calm 10.00 Fair CLR 73.2 55.6 54% 30.14 0.0
04 22:35 Calm 10.00 Fair CLR 73.6 55.8 54% 30.15 0.0
04 22:15 Calm 10.00 Fair CLR 74.3 54.7 51% 30.16 0.0
04 21:55 W 3 10.00 Fair CLR 73.8 54.9 52% 30.16 0.0
04 21:35 NW 3 10.00 Fair CLR 76.3 54.3 47% 78 30.16 0.0
04 21:15 S 5 10.00 Fair CLR 73.9 54.9 51% 30.15 0.0
04 20:55 NW 5 10.00 Fair CLR 73.8 55 52% 30.14 0.0
04 20:35 NW 7 10.00 Partly Cloudy SCT120 75.4 55.4 50% 78 30.14 0.0
04 20:15 NW 8 10.00 Mostly Cloudy BKN120 77.4 55.4 47% 79 30.12 0.0
04 19:55 W 8 10.00 Overcast SCT085 OVC120 78.8 54.3 43% 79 30.12 0.0
04 19:35 W 12 10.00 Overcast BKN085 OVC110 79.7 53.6 41% 80 30.12 0.0
04 19:15 W 10 10.00 Overcast SCT085 OVC110 81 51.8 36% 80 30.12 0.0
04 18:55 SW 6 10.00 Mostly Cloudy BKN110 81 51.8 36% 80 30.11 0.0
04 18:35 SW 7 10.00 Mostly Cloudy BKN120 81.9 52.2 36% 81 30.11 0.0
04 17:55 SW 10 10.00 Fair CLR 81 54.5 86.2 71.6 40% 81 30.1 0.0
04 17:35 SW 8 10.00 Fair CLR 82.4 50 32% 81 30.1 0.0
04 17:15 SW 8 10.00 Fair CLR 82.4 50.5 33% 81 30.09 0.0
04 16:55 SW 7 10.00 Partly Cloudy SCT100 82.8 49.6 32% 81 30.09 0.0
04 16:35 S 6 10.00 Partly Cloudy SCT100 83.3 48.6 30% 81 30.1 0.0
04 16:15 S 3 10.00 Thunderstorm in Vicinity CLR 83.7 48.2 29% 82 30.1 0.0
04 15:55 S 6 10.00 Fair CLR 84 48.4 29% 82 30.09 0.0
04 15:35 E 5 10.00 Fair CLR 84 48.4 29% 82 30.11 0.0
04 15:15 SE 7 10.00 Fair CLR 85.8 49.1 28% 83 30.11 0.0
04 14:55 S 3 10.00 Fair CLR 83.3 49.8 31% 82 30.12 0.0
04 14:35 Calm 10.00 Fair CLR 83.7 50.7 32% 82 30.12 0.0
04 14:15 E 5 10.00 Fair CLR 84.4 51.4 32% 83 30.14 0.0
04 13:55 SE 6 10.00 Fair CLR 83.5 52.5 34% 82 30.14 0.0
04 13:35 E 3 10.00 Fair CLR 81.3 53.2 38% 81 30.15 0.0
04 13:15 S 6 10.00 Fair CLR 80.4 56.1 43% 81 30.16 0.0
04 12:55 SE 5 10.00 Fair CLR 78.6 57.7 49% 80 30.18 0.0
04 12:35 SE 5 10.00 Fair CLR 76.1 60.3 58% 78 30.18 0.0
04 12:15 SE 6 10.00 Fair CLR 73.4 61 65% 30.19 0.0
04 11:55 SE 6 10.00 Partly Cloudy SCT070 71.6 62.1 72.3 66.6 72% 30.21 0.0 0.03
04 11:35 S 7 10.00 Mostly Cloudy SCT050 SCT070 BKN100 70.2 62.6 77% 30.21 0.0
04 11:15 E 7 10.00 Light Rain SCT031 SCT050 OVC100 68.9 62.8 81% 30.2 0.0
04 10:55 SE 8 10.00 Light Rain OVC100 69.8 61.9 76% 30.21 0.0 0.01
04 10:35 E 5 10.00 Light Rain OVC110 70.9 61.3 72% 30.21 0.0
04 10:15 E 3 10.00 Mostly Cloudy BKN110 70.2 60.6 72% 30.21 0.0
04 09:35 SW 7 10.00 Partly Cloudy SCT110 70.7 60.8 71% 30.21 0.0
04 09:15 SW 7 10.00 Fair CLR 69.3 62.6 79% 30.21 0.0
04 08:55 SE 5 10.00 Fair CLR 69.3 62.2 78% 30.21 0.0 0.02
04 08:35 S 5 10.00 Partly Cloudy SCT120 68.9 61.9 78% 30.2 0.0
04 08:15 S 5 10.00 Partly Cloudy SCT090 SCT120 68.4 61.3 78% 30.19 0.0
04 07:55 S 5 10.00 Light Rain BKN100 OVC120 67.6 61.9 82% 30.18 0.0 0.02
04 07:35 Calm 10.00 Rain SCT080 OVC100 66.7 61.3 83% 30.17 0.0 0.02
04 07:15 SW 8 10.00 Rain SCT070 BKN100 69.4 57.4 66% 30.16 0.0
04 06:55 SW 7 10.00 Fair CLR 69.1 57 66% 30.15 0.0
04 06:35 W 5 10.00 Partly Cloudy SCT075 SCT095 68.4 59.2 73% 30.15 0.0
04 06:15 W 3 10.00 Overcast SCT075 OVC095 68.2 60.8 77% 30.15 0.0
04 05:55 Calm 7.00 Light Rain SCT044 SCT060 OVC085 69.1 55.9 73.6 69.1 63% 30.14 0.0 0.01 0.01
04 05:35 S 5 10.00 Overcast BKN090 OVC110 72 51.1 48% 30.14 0.0
04 05:15 S 3 10.00 Mostly Cloudy SCT080 BKN110 71.1 51.1 49% 30.14 0.0
04 04:55 S 5 10.00 Mostly Cloudy BKN080 71.1 51.1 49% 30.12 0.0
04 04:35 S 5 10.00 Fair CLR 71.1 51.1 49% 30.12 0.0
04 04:15 SE 5 10.00 Fair CLR 71.8 51.8 49% 30.12 0.0
04 03:55 Calm 10.00 Partly Cloudy SCT120 70.9 51.8 51% 30.11 0.0
04 03:35 Calm 10.00 Partly Cloudy SCT120 71.1 51.4 50% 30.1 0.0
04 03:15 Calm 10.00 Fair CLR 70.9 51.1 50% 30.1 0.0
04 02:35 NW 3 10.00 Fair CLR 70.3 50.5 50% 30.1 0.0
04 02:15 Calm 10.00 Fair CLR 70.9 51.4 50% 30.1 0.0
04 01:55 Calm 10.00 Fair CLR 70.9 51.1 50% 30.11 0.0
04 01:35 NW 7 10.00 Fair CLR 71.8 51.4 49% 30.11 0.0
04 01:15 NW 5 10.00 Fair CLR 72 51.3 48% 30.11 0.0
04 00:55 NW 3 10.00 Fair CLR 71.8 51.1 48% 30.11 0.0
04 00:35 NW 5 10.00 Fair CLR 72 50.2 46% 30.11 0.0
04 00:15 NW 5 10.00 Fair CLR 71.8 48.9 44% 30.11 0.0
03 23:55 NW 3 10.00 Partly Cloudy SCT110 73.9 48.6 85.8 73.9 41% 30.11 0.0
03 23:35 Calm 10.00 Mostly Cloudy BKN110 74.8 48.7 40% 30.11 0.0
03 23:15 Calm 10.00 Partly Cloudy SCT120 76.5 48 37% 78 30.11 0.0
03 22:55 NE 5 10.00 Partly Cloudy SCT120 76.3 48 37% 78 30.11 0.0
03 22:35 NE 3 10.00 Partly Cloudy SCT120 76.1 48 37% 78 30.12 0.0
03 22:15 N 5 10.00 Partly Cloudy SCT120 77.2 48.2 36% 78 30.11 0.0
03 21:55 N 6 10.00 Fair CLR 76.8 47.7 36% 78 30.11 0.0
03 21:35 Calm 10.00 Partly Cloudy SCT120 77.2 47.3 35% 78 30.11 0.0
03 21:15 NW 3 10.00 Partly Cloudy SCT120 77.9 47.5 34% 78 30.11 0.0
03 20:55 NW 3 10.00 Partly Cloudy SCT120 79 47.7 33% 79 30.09 0.0
03 20:35 NW 3 10.00 Partly Cloudy SCT120 80.4 47.8 32% 80 30.09 0.0
03 20:15 W 6 10.00 Partly Cloudy SCT120 80.8 48.2 32% 80 30.08 0.0
03 19:55 W 7 10.00 Fair CLR 81.5 48.2 31% 80 30.08 0.0
03 19:35 W 13 10.00 Fair CLR 82.4 47.8 30% 81 30.08 0.0
03 19:15 W 14 10.00 Partly Cloudy SCT120 83.3 47.5 29% 81 30.08 0.0
03 18:55 W 15 10.00 Mostly Cloudy BKN110 84.2 46.8 27% 82 30.08 0.0
03 18:35 W 16 10.00 Fair CLR 84.4 46.2 26% 82 30.08 0.0
03 18:15 W 18 G 22 10.00 Partly Cloudy SCT095 SCT110 85.1 45.5 25% 82 30.07 0.0
03 17:35 SW 3 10.00 Mostly Cloudy BKN095 88.2 41.9 20% 85 30.07 0.0
03 17:15 S 5 10.00 Partly Cloudy SCT095 SCT120 88.7 41.9 19% 85 30.07 0.0
03 16:55 SW 3 10.00 Partly Cloudy SCT120 88.9 41.9 19% 85 30.07 0.0
03 16:35 S 7 10.00 Fair CLR 88.3 41.7 20% 85 30.07 0.0
03 16:15 Calm 10.00 Fair CLR 88.5 41.9 20% 85 30.08 0.0
03 15:55 N 3 10.00 Fair CLR 88.5 41.5 19% 85 30.08 0.0
03 15:35 NW 3 G 16 10.00 Fair CLR 89.4 41.2 18% 86 30.09 0.0
03 15:15 Calm 10.00 Fair CLR 89.4 40.8 18% 86 30.09 0.0
03 14:55 Calm 10.00 Fair CLR 90 41 18% 86 30.1 0.0
03 14:35 Calm 10.00 Fair CLR 89.2 41 18% 86 30.11 0.0
03 14:15 SW 5 10.00 Fair CLR 87.4 41.2 20% 84 30.12 0.0
03 13:55 SW 6 10.00 Fair CLR 87.8 41.9 20% 84 30.12 0.0
03 13:35 NW 6 10.00 Fair CLR 88.5 42.1 20% 85 30.13 0.0
03 13:15 Calm 10.00 Fair CLR 86.9 43.2 22% 84 30.14 0.0
03 12:55 W 6 10.00 Fair CLR 86.2 43.7 23% 83 30.15 0.0
03 12:35 Calm 10.00 Fair CLR 85.1 43.9 24% 82 30.17 0.0
03 12:15 NE 5 10.00 Fair CLR 86.4 44.2 23% 83 30.18 0.0
03 11:55 SE 6 10.00 Partly Cloudy SCT110 84.2 44.6 84.7 66.4 25% 82 30.18 0.0
03 11:35 SE 3 10.00 Partly Cloudy SCT110 83.3 44.8 26% 81 30.19 0.0
03 11:15 E 8 10.00 Fair CLR 84 45.5 26% 82 30.19 0.0
03 10:55 NE 6 10.00 Fair CLR 82.4 45 27% 81 30.2 0.0
03 10:35 Calm 10.00 Fair CLR 80.8 44.8 28% 80 30.2 0.0
03 10:15 NW 5 10.00 Fair CLR 82 44.8 27% 80 30.19 0.0
03 09:55 Calm 10.00 Fair CLR 80.1 44.1 28% 79 30.19 0.0
03 09:35 NE 5 10.00 Fair CLR 79.5 43.2 28% 79 30.2 0.0
03 09:15 SE 3 10.00 Fair CLR 78.1 42.4 28% 78 30.2 0.0
03 08:55 N 6 10.00 Fair CLR 76.6 43.7 31% 78 30.2 0.0
03 08:35 NE 6 10.00 Partly Cloudy SCT110 77.5 41.4 27% 78 30.19 0.0
03 08:15 NE 6 10.00 Overcast OVC110 76.6 40.3 27% 77 30.2 0.0
03 07:55 NE 5 10.00 Mostly Cloudy BKN110 73.9 39.7 29% 30.19 0.0
03 07:35 E 3 10.00 Fair CLR 68.5 40.3 36% 30.19 0.0
03 07:15 E 3 10.00 Fair CLR 67.1 39.9 37% 30.18 0.0
03 06:55 NE 5 10.00 Fair CLR 67.5 40.1 37% 30.17 0.0
03 06:35 E 3 10.00 Fair CLR 68.9 41 36% 30.16 0.0
03 06:15 Calm 10.00 Fair CLR 70.7 42.3 36% 30.16 0.0
03 05:55 Calm 10.00 Partly Cloudy SCT110 70.9 41.9 74.8 69.1 35% 30.16 0.0
03 05:35 Calm 10.00 Mostly Cloudy BKN110 70.2 41.2 35% 30.15 0.0
03 05:15 N 6 10.00 Overcast OVC110 71.2 41 34% 30.15 0.0
03 04:55 NW 7 10.00 Mostly Cloudy BKN110 71.6 40.6 33% 30.14 0.0
03 04:35 NW 8 10.00 Mostly Cloudy BKN100 70.9 41.2 34% 30.14 0.0
03 04:15 NW 10 10.00 Partly Cloudy SCT100 73.6 42.4 33% 30.14 0.0
03 03:55 NW 13 10.00 Fair CLR 73.6 41.2 31% 30.14 0.0
03 03:35 NW 9 10.00 Fair CLR 71.1 39.7 32% 30.14 0.0
03 03:15 NW 7 10.00 Fair CLR 70.5 38.3 31% 30.14 0.0
03 02:35 NE 5 10.00 Partly Cloudy SCT100 70.2 37.4 30% 30.14 0.0
03 02:15 E 6 10.00 Fair CLR 69.8 37 30% 30.14 0.0
03 01:55 W 3 10.00 Fair CLR 69.3 36 29% 30.14 0.0
03 01:35 W 7 10.00 Fair CLR 70 35.8 29% 30.13 0.0
03 01:15 W 8 10.00 Fair CLR 69.4 36.1 30% 30.12 0.0
03 00:55 W 8 10.00 Fair CLR 71.4 36.5 28% 30.12 0.0
03 00:35 W 9 10.00 Fair CLR 73.2 36 26% 30.12 0.0
03 00:15 W 8 10.00 Fair CLR 71.8 36.5 28% 30.12 0.0
02 23:55 W 5 10.00 Partly Cloudy SCT110 74.8 37.2 89.8 74.8 26% 30.12 0.0
02 23:35 NW 6 10.00 Mostly Cloudy BKN110 78.8 36.7 22% 78 30.12 0.0
02 23:15 N 7 10.00 Mostly Cloudy BKN110 79 39.7 25% 78 30.12 0.0
02 22:55 NW 6 10.00 Mostly Cloudy BKN110 80.1 41 25% 79 30.12 0.0
02 22:35 NW 6 10.00 Mostly Cloudy BKN120 81.1 40.8 24% 79 30.12 0.0
02 22:15 Calm 10.00 Partly Cloudy SCT120 81.3 40.1 23% 80 30.11 0.0
02 21:55 S 5 10.00 Partly Cloudy SCT120 82.2 40.1 22% 80 30.11 0.0
02 21:35 S 3 10.00 Mostly Cloudy BKN120 81.7 40.1 23% 80 30.11 0.0
02 21:15 S 5 10.00 Mostly Cloudy BKN120 82.8 40.1 22% 80 30.1 0.0
02 20:55 S 3 10.00 Partly Cloudy SCT120 83.1 39.7 21% 81 30.09 0.0
02 20:35 S 5 10.00 Fair CLR 84.6 39.4 20% 82 30.08 0.0
02 20:15 S 6 10.00 Fair CLR 84.9 39.6 20% 82 30.08 0.0
02 19:55 S 6 10.00 Partly Cloudy SCT120 85.5 39.6 20% 82 30.08 0.0
02 19:35 S 6 10.00 Fair CLR 86.2 39.4 19% 83 30.08 0.0
02 19:15 SE 5 10.00 Fair CLR 87.1 39.2 18% 84 30.08 0.0
02 18:55 SE 7 10.00 Fair CLR 88 38.3 17% 84 30.08 0.0
02 18:35 S 3 10.00 Fair CLR 88.7 37.6 16% 85 30.08 0.0
02 18:15 Calm 10.00 Fair CLR 89.2 37.4 16% 85 30.08 0.0
02 17:55 Calm 10.00 Fair CLR 90.1 37.4 93.4 84.2 16% 86 30.08 0.0
02 17:35 SW 7 10.00 Fair CLR 90.9 37.6 15% 87 30.09 0.0
02 17:15 W 5 10.00 Fair CLR 89.2 37.6 16% 85 30.09 0.0
02 16:55 SW 7 10.00 Fair CLR 93.2 38.3 15% 89 30.1 0.0
02 16:35 SE 3 10.00 Partly Cloudy SCT110 91.9 38.5 15% 88 30.11 0.0
02 16:15 Calm 10.00 Partly Cloudy SCT110 90.7 38.3 16% 87 30.11 0.0
Date Time (mdt) Wind (mph) Vis. (mi.) Weather Sky Cond. Air Dwpt Max. Min. Relative Humidity Wind Chill (°F) Heat Index (°F) altimeter (in) sea level (mb) 1 hr 3 hr 6 hr
6 hour
Temperature (ºF) Pressure Precipitation (in)